createdAt,value
2017-04-04T00:00:24.080Z,22.50
2017-04-04T00:01:24.757Z,22.50
2017-04-04T00:02:25.296Z,45.00
2017-04-04T00:03:25.675Z,45.00
2017-04-04T00:04:26.203Z,45.00
2017-04-04T00:05:26.734Z,45.00
2017-04-04T00:06:27.263Z,45.00
2017-04-04T00:07:27.795Z,45.00
2017-04-04T00:08:28.348Z,45.00
2017-04-04T00:09:29.002Z,67.50
2017-04-04T00:10:29.539Z,67.50
2017-04-04T00:11:29.918Z,45.00
2017-04-04T00:12:30.446Z,45.00
2017-04-04T00:13:31.127Z,45.00
2017-04-04T00:14:31.506Z,45.00
2017-04-04T00:15:32.040Z,45.00
2017-04-04T00:16:32.571Z,45.00
2017-04-04T00:17:33.104Z,45.00
2017-04-04T00:18:33.641Z,45.00
2017-04-04T00:19:34.172Z,45.00
2017-04-04T00:20:34.711Z,22.50
2017-04-04T00:21:35.239Z,45.00
2017-04-04T00:22:35.768Z,45.00
2017-04-04T00:23:36.299Z,22.50
2017-04-04T00:24:36.834Z,22.50
2017-04-04T00:25:37.364Z,22.50
2017-04-04T00:26:37.890Z,22.50
2017-04-04T00:27:38.426Z,45.00
2017-04-04T00:28:38.956Z,67.50
2017-04-04T00:29:39.490Z,67.50
2017-04-04T00:30:40.024Z,67.50
2017-04-04T00:31:40.555Z,67.50
2017-04-04T00:32:41.085Z,67.50
2017-04-04T00:33:41.613Z,45.00
2017-04-04T00:34:42.140Z,45.00
2017-04-04T00:35:42.675Z,45.00
2017-04-04T00:36:43.353Z,45.00
2017-04-04T00:37:43.733Z,45.00
2017-04-04T00:38:44.267Z,22.50
2017-04-04T00:39:44.822Z,45.00
2017-04-04T00:40:45.330Z,67.50
2017-04-04T00:41:45.852Z,67.50
2017-04-04T00:42:46.392Z,67.50
2017-04-04T00:43:46.921Z,67.50
2017-04-04T00:44:47.448Z,67.50
2017-04-04T00:45:47.986Z,67.50
2017-04-04T00:46:48.512Z,67.50
2017-04-04T00:47:49.046Z,67.50
2017-04-04T00:48:49.577Z,45.00
2017-04-04T00:49:50.112Z,45.00
2017-04-04T00:50:50.635Z,45.00
2017-04-04T00:51:51.168Z,67.50
2017-04-04T00:52:51.697Z,67.50
2017-04-04T00:53:52.236Z,45.00
2017-04-04T00:54:52.759Z,67.50
2017-04-04T00:55:53.292Z,67.50
2017-04-04T00:56:53.821Z,67.50
2017-04-04T00:57:54.358Z,202.50
2017-04-04T00:58:54.894Z,112.50
2017-04-04T00:59:55.423Z,22.50
2017-04-04T01:00:55.953Z,45.00
2017-04-04T01:01:56.491Z,45.00
2017-04-04T01:02:57.019Z,45.00
2017-04-04T01:03:57.556Z,22.50
2017-04-04T01:04:58.086Z,45.00
2017-04-04T01:05:58.619Z,45.00
2017-04-04T01:06:59.147Z,45.00
2017-04-04T01:07:59.685Z,45.00
2017-04-04T01:09:00.205Z,67.50
2017-04-04T01:10:00.734Z,67.50
2017-04-04T01:11:01.264Z,45.00
2017-04-04T01:12:01.793Z,67.50
2017-04-04T01:13:02.328Z,67.50
2017-04-04T01:14:02.856Z,67.50
2017-04-04T01:15:03.382Z,67.50
2017-04-04T01:16:03.924Z,112.50
2017-04-04T01:17:04.447Z,112.50
2017-04-04T01:18:04.975Z,45.00
2017-04-04T01:19:05.506Z,45.00
2017-04-04T01:20:06.046Z,45.00
2017-04-04T01:21:06.571Z,45.00
2017-04-04T01:22:07.119Z,45.00
2017-04-04T01:23:07.629Z,45.00
2017-04-04T01:24:08.162Z,135.00
2017-04-04T01:25:08.691Z,157.50
2017-04-04T01:26:09.222Z,157.50
2017-04-04T01:27:09.905Z,112.50
2017-04-04T01:28:10.284Z,45.00
2017-04-04T01:29:10.848Z,45.00
2017-04-04T01:30:11.344Z,45.00
2017-04-04T01:31:11.911Z,67.50
2017-04-04T01:32:12.407Z,90.00
2017-04-04T01:33:12.937Z,112.50
2017-04-04T01:34:13.616Z,112.50
2017-04-04T01:35:14.000Z,112.50
2017-04-04T01:36:14.678Z,90.00
2017-04-04T01:37:15.208Z,90.00
2017-04-04T01:38:15.591Z,90.00
2017-04-04T01:39:16.122Z,45.00
2017-04-04T01:40:16.661Z,45.00
2017-04-04T01:41:17.195Z,45.00
2017-04-04T01:42:17.732Z,45.00
2017-04-04T01:43:18.417Z,45.00
2017-04-04T01:44:18.801Z,45.00
2017-04-04T01:45:19.490Z,45.00
2017-04-04T01:46:19.860Z,45.00
2017-04-04T01:47:20.538Z,67.50
2017-04-04T01:48:20.920Z,67.50
2017-04-04T01:49:21.450Z,67.50
2017-04-04T01:50:21.984Z,45.00
2017-04-04T01:51:22.659Z,45.00
2017-04-04T01:52:23.040Z,22.50
2017-04-04T01:53:23.569Z,22.50
2017-04-04T01:54:24.099Z,22.50
2017-04-04T01:55:24.634Z,22.50
2017-04-04T01:56:25.168Z,45.00
2017-04-04T01:57:25.691Z,135.00
2017-04-04T01:58:26.224Z,67.50
2017-04-04T01:59:26.789Z,45.00
2017-04-04T02:00:27.286Z,45.00
2017-04-04T02:01:27.970Z,22.50
2017-04-04T02:02:28.349Z,22.50
2017-04-04T02:03:28.885Z,22.50
2017-04-04T02:04:29.413Z,22.50
2017-04-04T02:05:29.945Z,22.50
2017-04-04T02:06:30.482Z,90.00
2017-04-04T02:07:31.013Z,292.50
2017-04-04T02:08:31.536Z,292.50
2017-04-04T02:09:32.064Z,202.50
2017-04-04T02:10:32.899Z,112.50
2017-04-04T02:11:33.131Z,45.00
2017-04-04T02:12:33.659Z,22.50
2017-04-04T02:13:34.188Z,22.50
2017-04-04T02:14:34.719Z,22.50
2017-04-04T02:15:35.244Z,22.50
2017-04-04T02:16:35.779Z,67.50
2017-04-04T02:17:36.306Z,247.50
2017-04-04T02:18:36.838Z,315.00
2017-04-04T02:19:37.516Z,315.00
2017-04-04T02:20:37.899Z,157.50
2017-04-04T02:21:38.582Z,90.00
2017-04-04T02:22:38.968Z,22.50
2017-04-04T02:23:39.500Z,22.50
2017-04-04T02:24:40.039Z,45.00
2017-04-04T02:25:40.596Z,45.00
2017-04-04T02:26:41.106Z,45.00
2017-04-04T02:27:41.636Z,45.00
2017-04-04T02:28:42.176Z,45.00
2017-04-04T02:29:42.733Z,45.00
2017-04-04T02:30:43.239Z,45.00
2017-04-04T02:31:43.774Z,45.00
2017-04-04T02:32:44.294Z,45.00
2017-04-04T02:33:44.817Z,45.00
2017-04-04T02:34:45.375Z,22.50
2017-04-04T02:35:46.035Z,67.50
2017-04-04T02:36:46.415Z,45.00
2017-04-04T02:37:47.098Z,22.50
2017-04-04T02:38:47.483Z,22.50
2017-04-04T02:39:48.034Z,22.50
2017-04-04T02:40:48.544Z,22.50
2017-04-04T02:41:49.074Z,22.50
2017-04-04T02:42:49.608Z,45.00
2017-04-04T02:43:50.289Z,45.00
2017-04-04T02:44:50.671Z,45.00
2017-04-04T02:45:51.207Z,45.00
2017-04-04T02:46:51.876Z,45.00
2017-04-04T02:47:52.259Z,45.00
2017-04-04T02:48:52.796Z,45.00
2017-04-04T02:49:53.325Z,45.00
2017-04-04T02:50:53.855Z,45.00
2017-04-04T02:51:54.535Z,45.00
2017-04-04T02:52:54.914Z,45.00
2017-04-04T02:53:55.444Z,45.00
2017-04-04T02:54:56.124Z,45.00
2017-04-04T02:55:56.504Z,22.50
2017-04-04T02:56:57.062Z,157.50
2017-04-04T02:57:57.568Z,157.50
2017-04-04T02:58:58.103Z,157.50
2017-04-04T02:59:58.635Z,135.00
2017-04-04T03:00:59.162Z,112.50
2017-04-04T03:01:59.841Z,135.00
2017-04-04T03:03:00.224Z,157.50
2017-04-04T03:04:00.754Z,22.50
2017-04-04T03:05:01.291Z,22.50
2017-04-04T03:06:01.829Z,67.50
2017-04-04T03:07:02.361Z,247.50
2017-04-04T03:08:02.888Z,247.50
2017-04-04T03:09:03.427Z,157.50
2017-04-04T03:10:03.953Z,90.00
2017-04-04T03:11:04.488Z,112.50
2017-04-04T03:12:05.166Z,67.50
2017-04-04T03:13:05.551Z,247.50
2017-04-04T03:14:06.082Z,270.00
2017-04-04T03:15:06.752Z,292.50
2017-04-04T03:16:07.289Z,292.50
2017-04-04T03:17:07.670Z,337.50
2017-04-04T03:18:08.199Z,337.50
2017-04-04T03:19:08.729Z,337.50
2017-04-04T03:20:09.409Z,292.50
2017-04-04T03:21:09.935Z,45.00
2017-04-04T03:22:10.319Z,22.50
2017-04-04T03:23:10.996Z,22.50
2017-04-04T03:24:11.391Z,22.50
2017-04-04T03:25:11.912Z,45.00
2017-04-04T03:26:12.444Z,45.00
2017-04-04T03:27:12.974Z,22.50
2017-04-04T03:28:13.502Z,22.50
2017-04-04T03:29:14.042Z,22.50
2017-04-04T03:30:14.571Z,22.50
2017-04-04T03:31:15.104Z,22.50
2017-04-04T03:32:15.630Z,45.00
2017-04-04T03:33:16.164Z,45.00
2017-04-04T03:34:16.694Z,67.50
2017-04-04T03:35:17.224Z,67.50
2017-04-04T03:36:17.903Z,67.50
2017-04-04T03:37:18.284Z,67.50
2017-04-04T03:38:18.966Z,90.00
2017-04-04T03:39:19.351Z,45.00
2017-04-04T03:40:19.885Z,67.50
2017-04-04T03:41:20.415Z,67.50
2017-04-04T03:42:20.950Z,67.50
2017-04-04T03:43:21.624Z,67.50
2017-04-04T03:44:22.007Z,67.50
2017-04-04T03:45:22.544Z,90.00
2017-04-04T03:46:23.230Z,67.50
2017-04-04T03:47:23.757Z,180.00
2017-04-04T03:48:24.143Z,180.00
2017-04-04T03:49:24.677Z,157.50
2017-04-04T03:50:25.203Z,45.00
2017-04-04T03:51:25.730Z,22.50
2017-04-04T03:52:26.259Z,67.50
2017-04-04T03:53:26.823Z,67.50
2017-04-04T03:54:27.321Z,67.50
2017-04-04T03:55:27.860Z,67.50
2017-04-04T03:56:28.539Z,90.00
2017-04-04T03:57:28.919Z,157.50
2017-04-04T03:58:29.598Z,180.00
2017-04-04T03:59:30.022Z,157.50
2017-04-04T04:00:30.510Z,157.50
2017-04-04T04:01:31.043Z,157.50
2017-04-04T04:02:31.574Z,135.00
2017-04-04T04:03:32.101Z,67.50
2017-04-04T04:04:32.636Z,67.50
2017-04-04T04:05:33.169Z,67.50
2017-04-04T04:06:33.696Z,135.00
2017-04-04T04:07:34.227Z,135.00
2017-04-04T04:08:34.761Z,67.50
2017-04-04T04:09:35.293Z,45.00
2017-04-04T04:10:35.824Z,45.00
2017-04-04T04:11:36.356Z,45.00
2017-04-04T04:12:37.037Z,90.00
2017-04-04T04:13:37.416Z,90.00
2017-04-04T04:14:37.958Z,90.00
2017-04-04T04:15:38.479Z,90.00
2017-04-04T04:16:39.003Z,67.50
2017-04-04T04:17:39.538Z,67.50
2017-04-04T04:18:40.068Z,67.50
2017-04-04T04:19:40.600Z,67.50
2017-04-04T04:20:41.132Z,180.00
2017-04-04T04:21:41.668Z,180.00
2017-04-04T04:22:42.197Z,157.50
2017-04-04T04:23:42.726Z,67.50
2017-04-04T04:24:43.271Z,67.50
2017-04-04T04:25:43.789Z,90.00
2017-04-04T04:26:44.360Z,157.50
2017-04-04T04:27:44.895Z,157.50
2017-04-04T04:28:45.395Z,45.00
2017-04-04T04:29:45.933Z,135.00
2017-04-04T04:30:46.490Z,157.50
2017-04-04T04:31:47.005Z,157.50
2017-04-04T04:32:47.524Z,90.00
2017-04-04T04:33:48.058Z,90.00
2017-04-04T04:34:48.586Z,67.50
2017-04-04T04:35:49.116Z,67.50
2017-04-04T04:36:49.645Z,45.00
2017-04-04T04:37:50.175Z,45.00
2017-04-04T04:38:50.743Z,45.00
2017-04-04T04:39:51.239Z,67.50
2017-04-04T04:40:51.770Z,157.50
2017-04-04T04:41:52.297Z,180.00
2017-04-04T04:42:52.829Z,180.00
2017-04-04T04:43:53.361Z,157.50
2017-04-04T04:44:53.892Z,157.50
2017-04-04T04:45:54.424Z,157.50
2017-04-04T04:46:54.985Z,180.00
2017-04-04T04:47:55.487Z,157.50
2017-04-04T04:48:56.165Z,45.00
2017-04-04T04:49:56.550Z,67.50
2017-04-04T04:50:57.094Z,67.50
2017-04-04T04:51:57.612Z,112.50
2017-04-04T04:52:58.140Z,135.00
2017-04-04T04:53:58.671Z,90.00
2017-04-04T04:54:59.204Z,22.50
2017-04-04T04:55:59.735Z,45.00
2017-04-04T04:57:00.263Z,22.50
2017-04-04T04:58:00.790Z,45.00
2017-04-04T04:59:01.321Z,157.50
2017-04-04T05:00:01.854Z,135.00
2017-04-04T05:01:02.384Z,90.00
2017-04-04T05:02:02.913Z,90.00
2017-04-04T05:03:03.445Z,135.00
2017-04-04T05:04:03.976Z,112.50
2017-04-04T05:05:04.661Z,90.00
2017-04-04T05:06:05.047Z,90.00
2017-04-04T05:07:05.575Z,90.00
2017-04-04T05:08:06.250Z,112.50
2017-04-04T05:09:06.641Z,135.00
2017-04-04T05:10:07.178Z,157.50
2017-04-04T05:11:07.711Z,157.50
2017-04-04T05:12:08.248Z,157.50
2017-04-04T05:13:08.774Z,180.00
2017-04-04T05:14:09.310Z,180.00
2017-04-04T05:15:09.860Z,157.50
2017-04-04T05:16:10.518Z,157.50
2017-04-04T05:17:10.905Z,90.00
2017-04-04T05:18:11.438Z,135.00
2017-04-04T05:19:11.966Z,112.50
2017-04-04T05:20:12.507Z,90.00
2017-04-04T05:21:13.176Z,90.00
2017-04-04T05:22:13.559Z,90.00
2017-04-04T05:23:14.088Z,112.50
2017-04-04T05:24:14.767Z,157.50
2017-04-04T05:25:15.148Z,157.50
2017-04-04T05:26:15.681Z,112.50
2017-04-04T05:27:16.213Z,90.00
2017-04-04T05:28:16.744Z,90.00
2017-04-04T05:29:17.426Z,112.50
2017-04-04T05:30:17.954Z,67.50
2017-04-04T05:31:18.342Z,112.50
2017-04-04T05:32:18.872Z,112.50
2017-04-04T05:33:19.398Z,90.00
2017-04-04T05:34:19.927Z,45.00
2017-04-04T05:35:20.457Z,67.50
2017-04-04T05:36:20.988Z,67.50
2017-04-04T05:37:21.513Z,90.00
2017-04-04T05:38:22.050Z,90.00
2017-04-04T05:39:22.574Z,90.00
2017-04-04T05:40:23.105Z,112.50
2017-04-04T05:41:23.638Z,112.50
2017-04-04T05:42:24.315Z,67.50
2017-04-04T05:43:24.697Z,90.00
2017-04-04T05:44:25.229Z,67.50
2017-04-04T05:45:25.760Z,135.00
2017-04-04T05:46:26.294Z,90.00
2017-04-04T05:47:26.831Z,180.00
2017-04-04T05:48:27.355Z,135.00
2017-04-04T05:49:27.908Z,67.50
2017-04-04T05:50:28.428Z,67.50
2017-04-04T05:51:28.961Z,45.00
2017-04-04T05:52:29.491Z,90.00
2017-04-04T05:53:30.056Z,135.00
2017-04-04T05:54:30.554Z,157.50
2017-04-04T05:55:31.235Z,112.50
2017-04-04T05:56:31.618Z,90.00
2017-04-04T05:57:32.152Z,225.00
2017-04-04T05:58:32.681Z,247.50
2017-04-04T05:59:33.211Z,202.50
2017-04-04T06:00:33.744Z,247.50
2017-04-04T06:01:34.271Z,292.50
2017-04-04T06:02:34.802Z,315.00
2017-04-04T06:03:35.333Z,315.00
2017-04-04T06:04:35.863Z,315.00
2017-04-04T06:05:36.397Z,315.00
2017-04-04T06:06:36.925Z,270.00
2017-04-04T06:07:37.484Z,90.00
2017-04-04T06:08:37.986Z,45.00
2017-04-04T06:09:38.520Z,157.50
2017-04-04T06:10:39.050Z,157.50
2017-04-04T06:11:39.576Z,135.00
2017-04-04T06:12:40.112Z,90.00
2017-04-04T06:13:40.642Z,90.00
2017-04-04T06:14:41.176Z,202.50
2017-04-04T06:15:41.703Z,112.50
2017-04-04T06:16:42.236Z,90.00
2017-04-04T06:17:42.772Z,90.00
2017-04-04T06:18:43.300Z,112.50
2017-04-04T06:19:43.826Z,90.00
2017-04-04T06:20:44.364Z,90.00
2017-04-04T06:21:44.890Z,135.00
2017-04-04T06:22:45.425Z,157.50
2017-04-04T06:23:45.954Z,157.50
2017-04-04T06:24:46.486Z,202.50
2017-04-04T06:25:47.015Z,315.00
2017-04-04T06:26:47.550Z,315.00
2017-04-04T06:27:48.082Z,337.50
2017-04-04T06:28:48.616Z,292.50
2017-04-04T06:29:49.151Z,292.50
2017-04-04T06:30:49.688Z,202.50
2017-04-04T06:31:50.221Z,67.50
2017-04-04T06:32:50.750Z,90.00
2017-04-04T06:33:51.431Z,90.00
2017-04-04T06:34:51.809Z,90.00
2017-04-04T06:35:52.489Z,90.00
2017-04-04T06:36:53.017Z,90.00
2017-04-04T06:37:53.404Z,90.00
2017-04-04T06:38:53.934Z,90.00
2017-04-04T06:39:54.613Z,67.50
2017-04-04T06:40:54.993Z,90.00
2017-04-04T06:41:55.523Z,90.00
2017-04-04T06:42:56.055Z,90.00
2017-04-04T06:43:56.736Z,247.50
2017-04-04T06:44:57.117Z,337.50
2017-04-04T06:45:57.646Z,337.50
2017-04-04T06:46:58.177Z,292.50
2017-04-04T06:47:58.857Z,135.00
2017-04-04T06:48:59.238Z,90.00
2017-04-04T06:49:59.803Z,67.50
2017-04-04T06:51:00.305Z,112.50
2017-04-04T06:52:00.835Z,112.50
2017-04-04T06:53:01.388Z,157.50
2017-04-04T06:54:01.897Z,202.50
2017-04-04T06:55:02.426Z,135.00
2017-04-04T06:56:02.955Z,157.50
2017-04-04T06:57:03.485Z,202.50
2017-04-04T06:58:04.017Z,202.50
2017-04-04T06:59:04.548Z,180.00
2017-04-04T07:00:05.076Z,225.00
2017-04-04T07:01:05.607Z,270.00
2017-04-04T07:02:06.136Z,247.50
2017-04-04T07:03:06.671Z,292.50
2017-04-04T07:04:07.198Z,225.00
2017-04-04T07:05:07.877Z,202.50
2017-04-04T07:06:08.259Z,225.00
2017-04-04T07:07:08.794Z,270.00
2017-04-04T07:08:09.322Z,135.00
2017-04-04T07:09:10.001Z,202.50
2017-04-04T07:10:10.422Z,202.50
2017-04-04T07:11:10.925Z,180.00
2017-04-04T07:12:11.458Z,270.00
2017-04-04T07:13:11.993Z,270.00
2017-04-04T07:14:12.525Z,157.50
2017-04-04T07:15:13.057Z,157.50
2017-04-04T07:16:13.595Z,90.00
2017-04-04T07:17:14.133Z,157.50
2017-04-04T07:18:14.653Z,157.50
2017-04-04T07:19:15.187Z,90.00
2017-04-04T07:20:15.722Z,90.00
2017-04-04T07:21:16.248Z,225.00
2017-04-04T07:22:16.775Z,225.00
2017-04-04T07:23:17.309Z,225.00
2017-04-04T07:24:17.838Z,247.50
2017-04-04T07:25:18.388Z,247.50
2017-04-04T07:26:18.895Z,270.00
2017-04-04T07:27:19.431Z,225.00
2017-04-04T07:28:19.970Z,270.00
2017-04-04T07:29:20.495Z,292.50
2017-04-04T07:30:21.018Z,315.00
2017-04-04T07:31:21.556Z,270.00
2017-04-04T07:32:22.091Z,202.50
2017-04-04T07:33:22.613Z,202.50
2017-04-04T07:34:23.143Z,90.00
2017-04-04T07:35:23.673Z,247.50
2017-04-04T07:36:24.355Z,270.00
2017-04-04T07:37:24.734Z,315.00
2017-04-04T07:38:25.269Z,292.50
2017-04-04T07:39:25.797Z,315.00
2017-04-04T07:40:26.324Z,315.00
2017-04-04T07:41:26.859Z,315.00
2017-04-04T07:42:28.596Z,337.50
2017-04-04T07:43:27.911Z,337.50
2017-04-04T07:44:28.434Z,292.50
2017-04-04T07:45:28.993Z,315.00
2017-04-04T07:46:29.504Z,315.00
2017-04-04T07:47:30.033Z,315.00
2017-04-04T07:48:30.596Z,315.00
2017-04-04T07:49:31.093Z,315.00
2017-04-04T07:50:31.623Z,247.50
2017-04-04T07:51:32.160Z,247.50
2017-04-04T07:52:32.694Z,180.00
2017-04-04T07:53:33.235Z,180.00
2017-04-04T07:54:33.912Z,202.50
2017-04-04T07:55:34.341Z,157.50
2017-04-04T07:56:34.824Z,112.50
2017-04-04T07:57:35.357Z,180.00
2017-04-04T07:58:35.897Z,225.00
2017-04-04T07:59:36.415Z,225.00
2017-04-04T08:00:36.946Z,247.50
2017-04-04T08:01:37.488Z,247.50
2017-04-04T08:02:38.005Z,225.00
2017-04-04T08:03:38.683Z,202.50
2017-04-04T08:04:39.070Z,157.50
2017-04-04T08:05:39.600Z,202.50
2017-04-04T08:06:40.163Z,315.00
2017-04-04T08:07:40.664Z,292.50
2017-04-04T08:08:41.201Z,292.50
2017-04-04T08:09:41.720Z,315.00
2017-04-04T08:10:42.252Z,315.00
2017-04-04T08:11:42.791Z,315.00
2017-04-04T08:12:43.346Z,270.00
2017-04-04T08:13:43.844Z,315.00
2017-04-04T08:14:44.380Z,315.00
2017-04-04T08:15:44.912Z,292.50
2017-04-04T08:16:45.442Z,292.50
2017-04-04T08:17:45.973Z,247.50
2017-04-04T08:18:46.653Z,270.00
2017-04-04T08:19:47.035Z,292.50
2017-04-04T08:20:47.716Z,292.50
2017-04-04T08:21:48.099Z,315.00
2017-04-04T08:22:48.774Z,292.50
2017-04-04T08:23:49.165Z,292.50
2017-04-04T08:24:49.688Z,292.50
2017-04-04T08:25:50.219Z,247.50
2017-04-04T08:26:50.750Z,202.50
2017-04-04T08:27:51.285Z,270.00
2017-04-04T08:28:51.814Z,270.00
2017-04-04T08:29:52.342Z,247.50
2017-04-04T08:30:52.869Z,225.00
2017-04-04T08:31:53.402Z,180.00
2017-04-04T08:32:53.937Z,247.50
2017-04-04T08:33:54.468Z,225.00
2017-04-04T08:34:55.003Z,225.00
2017-04-04T08:35:55.537Z,292.50
2017-04-04T08:36:56.072Z,225.00
2017-04-04T08:37:56.602Z,202.50
2017-04-04T08:38:57.133Z,270.00
2017-04-04T08:39:57.660Z,270.00
2017-04-04T08:40:58.196Z,270.00
2017-04-04T08:41:58.734Z,247.50
2017-04-04T08:42:59.256Z,270.00
2017-04-04T08:43:59.930Z,247.50
2017-04-04T08:45:00.313Z,292.50
2017-04-04T08:46:00.993Z,292.50
2017-04-04T08:47:01.371Z,270.00
2017-04-04T08:48:01.908Z,180.00
2017-04-04T08:49:02.439Z,157.50
2017-04-04T08:50:02.977Z,292.50
2017-04-04T08:51:03.648Z,202.50
2017-04-04T08:52:04.030Z,225.00
2017-04-04T08:53:04.559Z,225.00
2017-04-04T08:54:05.276Z,157.50
2017-04-04T08:55:05.619Z,202.50
2017-04-04T08:56:06.150Z,157.50
2017-04-04T08:57:06.700Z,247.50
2017-04-04T08:58:07.212Z,270.00
2017-04-04T08:59:07.743Z,202.50
2017-04-04T09:00:08.277Z,157.50
2017-04-04T09:01:08.806Z,157.50
2017-04-04T09:02:09.338Z,157.50
2017-04-04T09:03:10.023Z,112.50
2017-04-04T09:04:10.412Z,90.00
2017-04-04T09:05:10.931Z,90.00
2017-04-04T09:06:11.612Z,135.00
2017-04-04T09:07:12.174Z,157.50
2017-04-04T09:08:12.524Z,112.50
2017-04-04T09:09:13.058Z,135.00
2017-04-04T09:10:13.591Z,157.50
2017-04-04T09:11:14.164Z,157.50
2017-04-04T09:12:15.009Z,157.50
2017-04-04T09:13:15.186Z,157.50
2017-04-04T09:14:15.724Z,135.00
2017-04-04T09:15:16.270Z,135.00
2017-04-04T09:16:16.797Z,180.00
2017-04-04T09:17:17.329Z,202.50
2017-04-04T09:18:17.860Z,202.50
2017-04-04T09:19:18.388Z,135.00
2017-04-04T09:20:18.919Z,90.00
2017-04-04T09:21:19.448Z,112.50
2017-04-04T09:22:19.980Z,135.00
2017-04-04T09:23:20.534Z,112.50
2017-04-04T09:24:21.059Z,112.50
2017-04-04T09:25:21.568Z,180.00
2017-04-04T09:26:22.105Z,225.00
2017-04-04T09:27:22.645Z,135.00
2017-04-04T09:28:23.163Z,135.00
2017-04-04T09:29:23.690Z,135.00
2017-04-04T09:30:24.222Z,135.00
2017-04-04T09:31:24.755Z,247.50
2017-04-04T09:32:25.287Z,202.50
2017-04-04T09:33:25.815Z,202.50
2017-04-04T09:34:26.350Z,202.50
2017-04-04T09:35:26.886Z,135.00
2017-04-04T09:36:27.409Z,135.00
2017-04-04T09:37:27.938Z,90.00
2017-04-04T09:38:28.470Z,157.50
2017-04-04T09:39:28.997Z,202.50
2017-04-04T09:40:29.531Z,135.00
2017-04-04T09:41:30.055Z,180.00
2017-04-04T09:42:30.588Z,225.00
2017-04-04T09:43:31.266Z,225.00
2017-04-04T09:44:31.647Z,202.50
2017-04-04T09:45:32.173Z,225.00
2017-04-04T09:46:32.708Z,112.50
2017-04-04T09:47:33.239Z,90.00
2017-04-04T09:48:33.765Z,112.50
2017-04-04T09:49:34.301Z,112.50
2017-04-04T09:50:34.828Z,90.00
2017-04-04T09:51:35.358Z,135.00
2017-04-04T09:52:35.895Z,135.00
2017-04-04T09:53:36.418Z,112.50
2017-04-04T09:54:36.952Z,112.50
2017-04-04T09:55:37.493Z,112.50
2017-04-04T09:56:38.029Z,157.50
2017-04-04T09:57:38.558Z,135.00
2017-04-04T09:58:39.094Z,112.50
2017-04-04T09:59:39.629Z,112.50
2017-04-04T10:00:40.159Z,90.00
2017-04-04T10:01:40.840Z,112.50
2017-04-04T10:02:41.219Z,157.50
2017-04-04T10:03:41.749Z,157.50
2017-04-04T10:04:42.280Z,135.00
2017-04-04T10:05:42.815Z,90.00
2017-04-04T10:06:43.347Z,90.00
2017-04-04T10:07:43.871Z,90.00
2017-04-04T10:08:44.409Z,90.00
2017-04-04T10:09:44.933Z,112.50
2017-04-04T10:10:45.609Z,135.00
2017-04-04T10:11:46.145Z,90.00
2017-04-04T10:12:46.527Z,90.00
2017-04-04T10:13:47.052Z,90.00
2017-04-04T10:14:47.734Z,90.00
2017-04-04T10:15:48.138Z,90.00
2017-04-04T10:16:48.647Z,90.00
2017-04-04T10:17:49.327Z,157.50
2017-04-04T10:18:49.709Z,180.00
2017-04-04T10:19:50.236Z,157.50
2017-04-04T10:20:50.773Z,90.00
2017-04-04T10:21:51.291Z,112.50
2017-04-04T10:22:51.828Z,112.50
2017-04-04T10:23:52.357Z,112.50
2017-04-04T10:24:53.033Z,135.00
2017-04-04T10:25:53.572Z,135.00
2017-04-04T10:26:53.950Z,135.00
2017-04-04T10:27:54.483Z,135.00
2017-04-04T10:28:55.010Z,90.00
2017-04-04T10:29:55.689Z,157.50
2017-04-04T10:30:56.068Z,180.00
2017-04-04T10:31:56.635Z,180.00
2017-04-04T10:32:57.134Z,90.00
2017-04-04T10:33:57.672Z,90.00
2017-04-04T10:34:58.200Z,90.00
2017-04-04T10:35:58.725Z,90.00
2017-04-04T10:36:59.406Z,90.00
2017-04-04T10:37:59.793Z,90.00
2017-04-04T10:39:00.339Z,90.00
2017-04-04T10:40:01.012Z,112.50
2017-04-04T10:41:01.396Z,112.50
2017-04-04T10:42:01.928Z,135.00
2017-04-04T10:43:02.456Z,157.50
2017-04-04T10:44:02.987Z,135.00
2017-04-04T10:45:03.519Z,112.50
2017-04-04T10:46:04.045Z,157.50
2017-04-04T10:47:04.587Z,157.50
2017-04-04T10:48:05.108Z,135.00
2017-04-04T10:49:05.641Z,157.50
2017-04-04T10:50:06.172Z,157.50
2017-04-04T10:51:06.700Z,157.50
2017-04-04T10:52:07.228Z,157.50
2017-04-04T10:53:07.759Z,157.50
2017-04-04T10:54:08.290Z,157.50
2017-04-04T10:55:08.823Z,157.50
2017-04-04T10:56:09.355Z,180.00
2017-04-04T10:57:09.885Z,180.00
2017-04-04T10:58:10.418Z,157.50
2017-04-04T10:59:10.949Z,112.50
2017-04-04T11:00:11.486Z,112.50
2017-04-04T11:01:12.014Z,135.00
2017-04-04T11:02:12.691Z,112.50
2017-04-04T11:03:13.076Z,112.50
2017-04-04T11:04:13.600Z,135.00
2017-04-04T11:05:14.132Z,135.00
2017-04-04T11:06:14.659Z,112.50
2017-04-04T11:07:15.195Z,112.50
2017-04-04T11:08:15.724Z,112.50
2017-04-04T11:09:16.403Z,135.00
2017-04-04T11:10:16.784Z,112.50
2017-04-04T11:11:17.315Z,135.00
2017-04-04T11:12:17.997Z,157.50
2017-04-04T11:13:18.377Z,225.00
2017-04-04T11:14:18.904Z,180.00
2017-04-04T11:15:19.439Z,157.50
2017-04-04T11:16:19.968Z,157.50
2017-04-04T11:17:20.501Z,157.50
2017-04-04T11:18:21.044Z,157.50
2017-04-04T11:19:21.569Z,112.50
2017-04-04T11:20:22.101Z,112.50
2017-04-04T11:21:22.642Z,112.50
2017-04-04T11:22:23.177Z,112.50
2017-04-04T11:23:23.701Z,112.50
2017-04-04T11:24:24.231Z,135.00
2017-04-04T11:25:24.763Z,157.50
2017-04-04T11:26:25.325Z,157.50
2017-04-04T11:27:25.824Z,180.00
2017-04-04T11:28:26.355Z,157.50
2017-04-04T11:29:26.883Z,157.50
2017-04-04T11:30:27.417Z,135.00
2017-04-04T11:31:27.951Z,135.00
2017-04-04T11:32:28.473Z,180.00
2017-04-04T11:33:29.011Z,157.50
2017-04-04T11:34:29.682Z,157.50
2017-04-04T11:35:30.064Z,112.50
2017-04-04T11:36:30.595Z,112.50
2017-04-04T11:37:31.129Z,112.50
2017-04-04T11:38:31.668Z,112.50
2017-04-04T11:39:32.193Z,112.50
2017-04-04T11:40:32.714Z,135.00
2017-04-04T11:41:33.250Z,157.50
2017-04-04T11:42:33.776Z,157.50
2017-04-04T11:43:34.306Z,180.00
2017-04-04T11:44:34.840Z,180.00
2017-04-04T11:45:35.372Z,157.50
2017-04-04T11:46:36.049Z,157.50
2017-04-04T11:47:36.429Z,90.00
2017-04-04T11:48:36.960Z,112.50
2017-04-04T11:49:37.492Z,157.50
2017-04-04T11:50:38.025Z,180.00
2017-04-04T11:51:38.561Z,157.50
2017-04-04T11:52:39.085Z,157.50
2017-04-04T11:53:39.622Z,180.00
2017-04-04T11:54:40.301Z,180.00
2017-04-04T11:55:40.684Z,90.00
2017-04-04T11:56:41.211Z,112.50
2017-04-04T11:57:41.747Z,157.50
2017-04-04T11:58:42.315Z,180.00
2017-04-04T11:59:42.814Z,157.50
2017-04-04T12:00:43.348Z,157.50
2017-04-04T12:01:43.880Z,157.50
2017-04-04T12:02:44.444Z,157.50
2017-04-04T12:03:44.940Z,157.50
2017-04-04T12:04:45.485Z,112.50
2017-04-04T12:05:46.005Z,90.00
2017-04-04T12:06:46.530Z,90.00
2017-04-04T12:07:47.061Z,90.00
2017-04-04T12:08:47.592Z,90.00
2017-04-04T12:09:48.123Z,157.50
2017-04-04T12:10:48.652Z,135.00
2017-04-04T12:11:49.185Z,135.00
2017-04-04T12:12:49.716Z,180.00
2017-04-04T12:13:50.393Z,180.00
2017-04-04T12:14:50.778Z,157.50
2017-04-04T12:15:51.303Z,112.50
2017-04-04T12:16:51.986Z,157.50
2017-04-04T12:17:52.363Z,157.50
2017-04-04T12:18:52.895Z,225.00
2017-04-04T12:19:53.424Z,225.00
2017-04-04T12:20:53.956Z,135.00
2017-04-04T12:21:54.488Z,90.00
2017-04-04T12:22:55.015Z,202.50
2017-04-04T12:23:55.551Z,202.50
2017-04-04T12:24:56.076Z,135.00
2017-04-04T12:25:56.608Z,112.50
2017-04-04T12:26:57.135Z,112.50
2017-04-04T12:27:57.666Z,90.00
2017-04-04T12:28:58.197Z,90.00
2017-04-04T12:29:58.723Z,90.00
2017-04-04T12:30:59.250Z,225.00
2017-04-04T12:31:59.781Z,180.00
2017-04-04T12:33:00.318Z,180.00
2017-04-04T12:34:00.847Z,180.00
2017-04-04T12:35:01.379Z,135.00
2017-04-04T12:36:01.908Z,202.50
2017-04-04T12:37:02.588Z,247.50
2017-04-04T12:38:03.121Z,270.00
2017-04-04T12:39:03.506Z,270.00
2017-04-04T12:40:04.042Z,225.00
2017-04-04T12:41:04.575Z,157.50
2017-04-04T12:42:05.264Z,180.00
2017-04-04T12:43:05.646Z,202.50
2017-04-04T12:44:06.181Z,270.00
2017-04-04T12:45:06.862Z,270.00